Aeroporto :







RITROVATECI SU...

 
LOGIN :

Iscrizione | Disclaimer

   EN    FR    IT 

 









Sommario :    VFR   VFR Marginale   IFR   IFR Intensivo   IFR Molto Intensivo
Visibilità : 
Base nubi : 
>= 8 km
>= 3000ft
5 / 8 km
1000 / 3000 ft
1500m / 5 km
500 / 1000 ft
800 / 1500m
200 / 500 ft
< 800m
< 200 ft
Simboli :   Temporali  Nebbia  Neve Forte  Precipitazioni Forti  Vento > 20 kt






- Altitudine del aeroporto : 129 ft
- Codice IATA : YVP


CYVP - Kuujjuak

ULTIMO METAR :
  • 220700Z 18010KT 2 1/2SM -SN SCT015 OVC024 M03/M04 A2949 RMK SN3SC1SC4 SLP992

METARs OBSOLETI :
  • 220600Z 18008KT 2 1/2SM -SN SCT011 BKN025 OVC035 M03/M04 A2952 RMK SN3SF1SC2SC2 /S02/ SLP000
  • 220500Z 18008KT 2 1/2SM -SN SCT012 OVC019 OVC030 M03/M04 A2955 RMK SN3SF1SC4SC1 SLP010

TAF TAF CYVP
Valido dal 22 a 06 ore il 22 a 18 ore UTC


220538Z 2206/2218 18010G20KT P6SM -SN OVC025
TEMPO 2206/2210 2SM -SN
PROB30 2206/2210 11/2SM -SN
FM221000 18012KT 6SM -SN OVC025
TEMPO 2210/2218 21/2SM -SHSN BKN012 OVC025
PROB30 2210/2218 11/2SM -SN RMK NXT FCST BY 221200Z



MetMap, La meteo Aeronautica in un colpo d'occhio ! - Copyright ORBIFLY Dicembre 2007 - Disclaimer

ORBIFLY MET'MAP TEAM :

Programmazione e sviluppo : Alexandra Zaïnal
Concezione e sviluppo : Baudouin d'Aumeries
Co-Programmazione e sviluppo : Marc-Olivier Méhu
Supporto tecnico e logistico : Manuel Goepfert
Aiuto per la traduzione : Arnaldo La Scala

Contatto : metmap@orbifly.com




FONTI E CREDITI :

   NOAA